sensor_id;sensor_type;location;lat;lon;timestamp;temperature;humidity
81867;DHT22;71318;-36.550;-64.300;2023-09-18T13:18:39;12.10;34.90
81867;DHT22;71318;-36.550;-64.300;2023-09-18T13:21:26;11.80;35.40
81867;DHT22;71318;-36.550;-64.300;2023-09-18T13:25:12;11.90;36.10
81867;DHT22;71318;-36.550;-64.300;2023-09-18T13:27:45;12.40;34.90
81867;DHT22;71318;-36.550;-64.300;2023-09-18T13:30:11;12.50;33.80
81867;DHT22;71318;-36.550;-64.300;2023-09-18T13:32:43;12.60;34.20
81867;DHT22;71318;-36.550;-64.300;2023-09-18T13:35:10;12.30;34.30
81867;DHT22;71318;-36.550;-64.300;2023-09-18T13:37:39;12.70;33.10
81867;DHT22;71318;-36.550;-64.300;2023-09-18T13:40:06;12.30;35.20
81867;DHT22;71318;-36.550;-64.300;2023-09-18T13:42:38;12.50;33.40
81867;DHT22;71318;-36.550;-64.300;2023-09-18T13:45:05;12.50;35.40
81867;DHT22;71318;-36.550;-64.300;2023-09-18T13:47:35;12.70;32.70
81867;DHT22;71318;-36.550;-64.300;2023-09-18T13:50:05;12.80;31.30
81867;DHT22;71318;-36.550;-64.300;2023-09-18T13:52:32;13.00;31.50
81867;DHT22;71318;-36.550;-64.300;2023-09-18T13:55:00;12.70;34.00
81867;DHT22;71318;-36.550;-64.300;2023-09-18T13:57:26;12.50;33.30
81867;DHT22;71318;-36.550;-64.300;2023-09-18T13:59:53;12.40;34.60
81867;DHT22;71318;-36.550;-64.300;2023-09-18T14:02:19;12.90;32.60
81867;DHT22;71318;-36.550;-64.300;2023-09-18T14:04:45;13.00;30.80
81867;DHT22;71318;-36.550;-64.300;2023-09-18T14:07:12;13.20;30.60
81867;DHT22;71318;-36.550;-64.300;2023-09-18T14:09:39;13.10;31.20
81867;DHT22;71318;-36.550;-64.300;2023-09-18T14:12:06;12.90;32.50
81867;DHT22;71318;-36.550;-64.300;2023-09-18T14:14:33;13.30;31.50
81867;DHT22;71318;-36.550;-64.300;2023-09-18T14:17:01;13.30;29.80
81867;DHT22;71318;-36.550;-64.300;2023-09-18T14:19:28;13.30;31.80
81867;DHT22;71318;-36.550;-64.300;2023-09-18T14:21:55;13.30;30.10
81867;DHT22;71318;-36.550;-64.300;2023-09-18T14:24:22;13.60;31.00
81867;DHT22;71318;-36.550;-64.300;2023-09-18T14:27:05;13.90;30.00
81867;DHT22;71318;-36.550;-64.300;2023-09-18T14:29:32;13.50;28.30
81867;DHT22;71318;-36.550;-64.300;2023-09-18T14:31:59;13.60;29.00
81867;DHT22;71318;-36.550;-64.300;2023-09-18T14:34:26;13.90;29.80
81867;DHT22;71318;-36.550;-64.300;2023-09-18T14:36:53;14.20;27.30
81867;DHT22;71318;-36.550;-64.300;2023-09-18T14:39:19;14.20;28.50
81867;DHT22;71318;-36.550;-64.300;2023-09-18T14:41:45;13.80;27.40
81867;DHT22;71318;-36.550;-64.300;2023-09-18T14:44:13;14.00;29.60
81867;DHT22;71318;-36.550;-64.300;2023-09-18T14:46:39;14.00;27.20
81867;DHT22;71318;-36.550;-64.300;2023-09-18T14:49:06;14.00;27.90
81867;DHT22;71318;-36.550;-64.300;2023-09-18T14:51:36;13.90;27.90
81867;DHT22;71318;-36.550;-64.300;2023-09-18T14:54:02;14.30;27.80
81867;DHT22;71318;-36.550;-64.300;2023-09-18T14:56:33;14.40;26.40
81867;DHT22;71318;-36.550;-64.300;2023-09-18T14:59:02;14.30;26.50
81867;DHT22;71318;-36.550;-64.300;2023-09-18T15:01:28;15.00;24.40
81867;DHT22;71318;-36.550;-64.300;2023-09-18T15:03:55;15.30;22.90
81867;DHT22;71318;-36.550;-64.300;2023-09-18T15:06:21;14.80;24.10
81867;DHT22;71318;-36.550;-64.300;2023-09-18T15:08:47;14.20;27.00
81867;DHT22;71318;-36.550;-64.300;2023-09-18T15:11:14;14.30;28.00
81867;DHT22;71318;-36.550;-64.300;2023-09-18T15:13:43;14.90;26.60
81867;DHT22;71318;-36.550;-64.300;2023-09-18T15:16:09;15.60;22.30
81867;DHT22;71318;-36.550;-64.300;2023-09-18T15:18:38;16.20;21.20
81867;DHT22;71318;-36.550;-64.300;2023-09-18T15:21:05;15.90;20.70
81867;DHT22;71318;-36.550;-64.300;2023-09-18T15:23:31;15.90;24.10
81867;DHT22;71318;-36.550;-64.300;2023-09-18T15:25:58;16.00;21.30
81867;DHT22;71318;-36.550;-64.300;2023-09-18T15:28:24;16.30;21.10
81867;DHT22;71318;-36.550;-64.300;2023-09-18T15:30:52;16.30;21.00
81867;DHT22;71318;-36.550;-64.300;2023-09-18T15:33:19;16.00;20.30
81867;DHT22;71318;-36.550;-64.300;2023-09-18T15:35:48;15.70;20.40
81867;DHT22;71318;-36.550;-64.300;2023-09-18T15:38:15;16.10;20.80
81867;DHT22;71318;-36.550;-64.300;2023-09-18T15:40:43;16.20;21.40
81867;DHT22;71318;-36.550;-64.300;2023-09-18T15:43:10;16.20;20.30
81867;DHT22;71318;-36.550;-64.300;2023-09-18T15:45:36;16.10;20.50
81867;DHT22;71318;-36.550;-64.300;2023-09-18T15:48:03;16.00;19.20
81867;DHT22;71318;-36.550;-64.300;2023-09-18T15:50:31;16.00;19.10
81867;DHT22;71318;-36.550;-64.300;2023-09-18T15:52:57;16.50;18.90
81867;DHT22;71318;-36.550;-64.300;2023-09-18T15:55:24;16.80;14.50
81867;DHT22;71318;-36.550;-64.300;2023-09-18T15:57:52;16.80;10.90
81867;DHT22;71318;-36.550;-64.300;2023-09-18T16:00:20;16.60;17.40
81867;DHT22;71318;-36.550;-64.300;2023-09-18T16:02:46;16.60;15.40
81867;DHT22;71318;-36.550;-64.300;2023-09-18T16:05:15;16.80;15.80
81867;DHT22;71318;-36.550;-64.300;2023-09-18T16:07:47;16.90;15.00
81867;DHT22;71318;-36.550;-64.300;2023-09-18T16:10:14;17.10;13.40
81867;DHT22;71318;-36.550;-64.300;2023-09-18T16:12:40;17.30;14.30
81867;DHT22;71318;-36.550;-64.300;2023-09-18T16:15:07;17.40;13.40
81867;DHT22;71318;-36.550;-64.300;2023-09-18T16:17:33;17.70;13.30
81867;DHT22;71318;-36.550;-64.300;2023-09-18T16:20:00;17.50;12.20
81867;DHT22;71318;-36.550;-64.300;2023-09-18T16:22:26;17.40;11.90
81867;DHT22;71318;-36.550;-64.300;2023-09-18T16:24:53;16.70;11.90
81867;DHT22;71318;-36.550;-64.300;2023-09-18T16:27:20;17.00;13.00
81867;DHT22;71318;-36.550;-64.300;2023-09-18T16:29:46;17.20;11.70
81867;DHT22;71318;-36.550;-64.300;2023-09-18T16:32:15;17.00;12.70
81867;DHT22;71318;-36.550;-64.300;2023-09-18T16:34:41;17.70;11.70
81867;DHT22;71318;-36.550;-64.300;2023-09-18T16:37:08;17.70;12.50
81867;DHT22;71318;-36.550;-64.300;2023-09-18T16:39:35;17.60;11.50
81867;DHT22;71318;-36.550;-64.300;2023-09-18T16:42:01;17.40;9.90
81867;DHT22;71318;-36.550;-64.300;2023-09-18T16:44:28;18.10;10.20
81867;DHT22;71318;-36.550;-64.300;2023-09-18T16:46:55;18.60;7.60
81867;DHT22;71318;-36.550;-64.300;2023-09-18T16:49:21;17.80;9.30
81867;DHT22;71318;-36.550;-64.300;2023-09-18T16:51:48;16.80;10.10
81867;DHT22;71318;-36.550;-64.300;2023-09-18T16:54:15;17.20;11.50
81867;DHT22;71318;-36.550;-64.300;2023-09-18T16:56:42;18.00;9.70
81867;DHT22;71318;-36.550;-64.300;2023-09-18T16:59:09;17.40;10.40
81867;DHT22;71318;-36.550;-64.300;2023-09-18T17:01:35;18.00;10.40
81867;DHT22;71318;-36.550;-64.300;2023-09-18T17:04:02;17.90;8.90
81867;DHT22;71318;-36.550;-64.300;2023-09-18T17:06:29;18.10;8.90
81867;DHT22;71318;-36.550;-64.300;2023-09-18T17:09:01;18.00;10.90
81867;DHT22;71318;-36.550;-64.300;2023-09-18T17:11:30;17.20;9.20
81867;DHT22;71318;-36.550;-64.300;2023-09-18T17:13:57;17.40;10.30
81867;DHT22;71318;-36.550;-64.300;2023-09-18T17:16:24;17.90;9.80
81867;DHT22;71318;-36.550;-64.300;2023-09-18T17:18:51;18.40;8.40
81867;DHT22;71318;-36.550;-64.300;2023-09-18T17:21:24;18.60;6.70
81867;DHT22;71318;-36.550;-64.300;2023-09-18T17:23:51;17.60;10.60
81867;DHT22;71318;-36.550;-64.300;2023-09-18T17:26:18;17.40;9.40
81867;DHT22;71318;-36.550;-64.300;2023-09-18T17:28:44;18.00;8.70
81867;DHT22;71318;-36.550;-64.300;2023-09-18T17:31:11;18.00;8.70
81867;DHT22;71318;-36.550;-64.300;2023-09-18T17:33:37;17.70;8.10
81867;DHT22;71318;-36.550;-64.300;2023-09-18T17:36:06;18.20;7.30
81867;DHT22;71318;-36.550;-64.300;2023-09-18T17:38:37;18.20;7.10
81867;DHT22;71318;-36.550;-64.300;2023-09-18T17:41:03;18.40;7.00
81867;DHT22;71318;-36.550;-64.300;2023-09-18T17:43:30;18.30;6.80
81867;DHT22;71318;-36.550;-64.300;2023-09-18T17:46:00;18.20;8.40
81867;DHT22;71318;-36.550;-64.300;2023-09-18T17:48:30;17.60;7.60
81867;DHT22;71318;-36.550;-64.300;2023-09-18T17:50:57;18.00;8.70
81867;DHT22;71318;-36.550;-64.300;2023-09-18T17:53:27;18.60;8.10
81867;DHT22;71318;-36.550;-64.300;2023-09-18T17:55:54;18.20;7.10
81867;DHT22;71318;-36.550;-64.300;2023-09-18T17:58:20;18.20;7.70
81867;DHT22;71318;-36.550;-64.300;2023-09-18T18:00:47;18.30;6.50
81867;DHT22;71318;-36.550;-64.300;2023-09-18T18:03:14;18.20;6.80
81867;DHT22;71318;-36.550;-64.300;2023-09-18T18:05:41;18.40;7.10
81867;DHT22;71318;-36.550;-64.300;2023-09-18T18:08:12;18.20;6.00
81867;DHT22;71318;-36.550;-64.300;2023-09-18T18:10:42;17.80;8.20
81867;DHT22;71318;-36.550;-64.300;2023-09-18T18:13:13;18.30;7.30
81867;DHT22;71318;-36.550;-64.300;2023-09-18T18:15:41;18.50;6.70
81867;DHT22;71318;-36.550;-64.300;2023-09-18T18:18:08;18.50;6.90
81867;DHT22;71318;-36.550;-64.300;2023-09-18T18:20:38;18.40;6.70
81867;DHT22;71318;-36.550;-64.300;2023-09-18T18:23:08;17.80;10.90
81867;DHT22;71318;-36.550;-64.300;2023-09-18T18:25:34;18.30;7.70
81867;DHT22;71318;-36.550;-64.300;2023-09-18T18:28:02;18.50;7.50
81867;DHT22;71318;-36.550;-64.300;2023-09-18T18:30:32;18.30;5.90
81867;DHT22;71318;-36.550;-64.300;2023-09-18T18:33:00;18.30;6.80
81867;DHT22;71318;-36.550;-64.300;2023-09-18T18:35:26;18.50;6.80
81867;DHT22;71318;-36.550;-64.300;2023-09-18T18:37:53;18.20;6.00
81867;DHT22;71318;-36.550;-64.300;2023-09-18T18:40:20;18.60;7.00
81867;DHT22;71318;-36.550;-64.300;2023-09-18T18:42:48;18.70;7.10
81867;DHT22;71318;-36.550;-64.300;2023-09-18T18:45:17;18.90;9.10
81867;DHT22;71318;-36.550;-64.300;2023-09-18T18:47:48;19.00;7.20
81867;DHT22;71318;-36.550;-64.300;2023-09-18T18:50:16;19.00;6.80
81867;DHT22;71318;-36.550;-64.300;2023-09-18T18:52:42;18.90;7.70
81867;DHT22;71318;-36.550;-64.300;2023-09-18T18:55:11;19.00;7.60
81867;DHT22;71318;-36.550;-64.300;2023-09-18T18:57:37;18.80;7.80
81867;DHT22;71318;-36.550;-64.300;2023-09-18T19:00:04;18.80;7.10
81867;DHT22;71318;-36.550;-64.300;2023-09-18T19:02:39;18.90;7.10
81867;DHT22;71318;-36.550;-64.300;2023-09-18T19:05:06;18.10;9.50
81867;DHT22;71318;-36.550;-64.300;2023-09-18T19:07:35;17.70;8.70
81867;DHT22;71318;-36.550;-64.300;2023-09-18T19:10:02;17.90;8.30
81867;DHT22;71318;-36.550;-64.300;2023-09-18T19:12:30;18.40;7.90
81867;DHT22;71318;-36.550;-64.300;2023-09-18T19:14:59;18.60;6.50
81867;DHT22;71318;-36.550;-64.300;2023-09-18T19:17:25;18.40;7.90
81867;DHT22;71318;-36.550;-64.300;2023-09-18T19:19:52;18.90;8.40
81867;DHT22;71318;-36.550;-64.300;2023-09-18T19:22:18;19.00;7.00
81867;DHT22;71318;-36.550;-64.300;2023-09-18T19:24:47;18.50;7.30
81867;DHT22;71318;-36.550;-64.300;2023-09-18T19:27:15;18.60;7.40
81867;DHT22;71318;-36.550;-64.300;2023-09-18T19:29:41;18.90;7.20
81867;DHT22;71318;-36.550;-64.300;2023-09-18T19:32:08;18.70;7.90
81867;DHT22;71318;-36.550;-64.300;2023-09-18T19:34:36;18.90;7.80
81867;DHT22;71318;-36.550;-64.300;2023-09-18T19:37:03;18.60;7.20
81867;DHT22;71318;-36.550;-64.300;2023-09-18T19:39:29;18.50;7.20
81867;DHT22;71318;-36.550;-64.300;2023-09-18T19:41:55;18.40;6.60
81867;DHT22;71318;-36.550;-64.300;2023-09-18T19:44:27;18.60;7.00
81867;DHT22;71318;-36.550;-64.300;2023-09-18T19:46:53;18.70;7.10
81867;DHT22;71318;-36.550;-64.300;2023-09-18T19:49:20;18.60;7.60
81867;DHT22;71318;-36.550;-64.300;2023-09-18T19:51:46;18.70;7.40
81867;DHT22;71318;-36.550;-64.300;2023-09-18T19:54:13;18.90;8.50
81867;DHT22;71318;-36.550;-64.300;2023-09-18T19:56:40;18.30;8.60
81867;DHT22;71318;-36.550;-64.300;2023-09-18T19:59:06;18.30;8.90
81867;DHT22;71318;-36.550;-64.300;2023-09-18T20:01:33;18.60;8.60
81867;DHT22;71318;-36.550;-64.300;2023-09-18T20:04:02;18.90;8.80
81867;DHT22;71318;-36.550;-64.300;2023-09-18T20:06:30;18.80;8.40
81867;DHT22;71318;-36.550;-64.300;2023-09-18T20:08:56;18.60;9.00
81867;DHT22;71318;-36.550;-64.300;2023-09-18T20:11:23;18.60;9.90
81867;DHT22;71318;-36.550;-64.300;2023-09-18T20:13:49;18.50;9.30
81867;DHT22;71318;-36.550;-64.300;2023-09-18T20:16:16;18.60;10.10
81867;DHT22;71318;-36.550;-64.300;2023-09-18T20:18:42;18.70;9.30
81867;DHT22;71318;-36.550;-64.300;2023-09-18T20:21:09;18.80;9.20
81867;DHT22;71318;-36.550;-64.300;2023-09-18T20:23:37;18.40;9.10
81867;DHT22;71318;-36.550;-64.300;2023-09-18T20:26:04;18.40;9.40
81867;DHT22;71318;-36.550;-64.300;2023-09-18T20:28:31;18.40;10.60
81867;DHT22;71318;-36.550;-64.300;2023-09-18T20:30:58;18.40;9.80
81867;DHT22;71318;-36.550;-64.300;2023-09-18T20:33:26;18.20;10.20
81867;DHT22;71318;-36.550;-64.300;2023-09-18T20:36:02;18.30;10.50
81867;DHT22;71318;-36.550;-64.300;2023-09-18T20:38:31;18.50;10.10
81867;DHT22;71318;-36.550;-64.300;2023-09-18T20:40:57;18.00;11.40
81867;DHT22;71318;-36.550;-64.300;2023-09-18T20:43:25;17.80;11.50
81867;DHT22;71318;-36.550;-64.300;2023-09-18T20:45:55;17.80;11.70
81867;DHT22;71318;-36.550;-64.300;2023-09-18T20:48:22;18.00;11.70
81867;DHT22;71318;-36.550;-64.300;2023-09-18T20:50:48;17.90;11.90
81867;DHT22;71318;-36.550;-64.300;2023-09-18T20:53:15;17.80;11.30
81867;DHT22;71318;-36.550;-64.300;2023-09-18T20:55:43;17.80;11.00
81867;DHT22;71318;-36.550;-64.300;2023-09-18T20:58:10;17.80;11.60
81867;DHT22;71318;-36.550;-64.300;2023-09-18T21:00:38;17.70;11.50
81867;DHT22;71318;-36.550;-64.300;2023-09-18T21:03:05;17.70;11.80
81867;DHT22;71318;-36.550;-64.300;2023-09-18T21:05:31;17.60;12.10
81867;DHT22;71318;-36.550;-64.300;2023-09-18T21:07:59;17.60;11.80
81867;DHT22;71318;-36.550;-64.300;2023-09-18T21:10:25;17.50;11.60
81867;DHT22;71318;-36.550;-64.300;2023-09-18T21:12:53;17.30;12.10
81867;DHT22;71318;-36.550;-64.300;2023-09-18T21:15:19;17.20;11.40
81867;DHT22;71318;-36.550;-64.300;2023-09-18T21:17:46;17.10;12.60
81867;DHT22;71318;-36.550;-64.300;2023-09-18T21:20:12;17.10;12.60
81867;DHT22;71318;-36.550;-64.300;2023-09-18T21:22:38;16.90;12.00
81867;DHT22;71318;-36.550;-64.300;2023-09-18T21:25:08;16.80;12.20
81867;DHT22;71318;-36.550;-64.300;2023-09-18T21:27:35;16.80;13.00
81867;DHT22;71318;-36.550;-64.300;2023-09-18T21:30:02;16.70;11.90
81867;DHT22;71318;-36.550;-64.300;2023-09-18T21:32:29;16.60;12.90
81867;DHT22;71318;-36.550;-64.300;2023-09-18T21:34:56;16.50;12.60
81867;DHT22;71318;-36.550;-64.300;2023-09-18T21:37:22;16.40;12.30
81867;DHT22;71318;-36.550;-64.300;2023-09-18T21:39:49;16.40;12.80
81867;DHT22;71318;-36.550;-64.300;2023-09-18T21:42:16;16.20;13.40
81867;DHT22;71318;-36.550;-64.300;2023-09-18T21:44:42;16.00;14.30
81867;DHT22;71318;-36.550;-64.300;2023-09-18T21:47:10;15.80;14.70
81867;DHT22;71318;-36.550;-64.300;2023-09-18T21:49:39;15.50;14.90
81867;DHT22;71318;-36.550;-64.300;2023-09-18T21:52:12;15.40;15.30
81867;DHT22;71318;-36.550;-64.300;2023-09-18T21:54:39;15.20;16.30
81867;DHT22;71318;-36.550;-64.300;2023-09-18T21:57:06;15.10;16.40
81867;DHT22;71318;-36.550;-64.300;2023-09-18T21:59:32;14.80;17.00
81867;DHT22;71318;-36.550;-64.300;2023-09-18T22:01:58;14.30;18.10
81867;DHT22;71318;-36.550;-64.300;2023-09-18T22:06:21;13.90;18.70
81867;DHT22;71318;-36.550;-64.300;2023-09-18T22:12:02;13.40;19.30
81867;DHT22;71318;-36.550;-64.300;2023-09-18T22:14:30;13.30;19.70
81867;DHT22;71318;-36.550;-64.300;2023-09-18T22:16:56;13.10;19.90
81867;DHT22;71318;-36.550;-64.300;2023-09-18T22:20:11;12.90;20.20
81867;DHT22;71318;-36.550;-64.300;2023-09-18T22:22:47;12.80;20.40
81867;DHT22;71318;-36.550;-64.300;2023-09-18T22:25:14;12.80;20.60
81867;DHT22;71318;-36.550;-64.300;2023-09-18T22:27:40;12.70;20.90
81867;DHT22;71318;-36.550;-64.300;2023-09-18T22:30:07;12.50;22.60
81867;DHT22;71318;-36.550;-64.300;2023-09-18T22:32:35;12.40;22.90
81867;DHT22;71318;-36.550;-64.300;2023-09-18T22:35:02;12.20;23.10
81867;DHT22;71318;-36.550;-64.300;2023-09-18T22:37:35;11.90;23.40
81867;DHT22;71318;-36.550;-64.300;2023-09-18T22:56:59;11.40;24.30
81867;DHT22;71318;-36.550;-64.300;2023-09-18T22:59:25;11.30;24.30
81867;DHT22;71318;-36.550;-64.300;2023-09-18T23:01:52;11.20;24.60
81867;DHT22;71318;-36.550;-64.300;2023-09-18T23:04:19;11.10;24.30
81867;DHT22;71318;-36.550;-64.300;2023-09-18T23:06:45;11.20;24.20
81867;DHT22;71318;-36.550;-64.300;2023-09-18T23:09:12;11.10;24.50
81867;DHT22;71318;-36.550;-64.300;2023-09-18T23:11:40;10.80;24.90
81867;DHT22;71318;-36.550;-64.300;2023-09-18T23:14:06;10.70;24.80
81867;DHT22;71318;-36.550;-64.300;2023-09-18T23:16:33;10.70;25.10
81867;DHT22;71318;-36.550;-64.300;2023-09-18T23:18:59;10.70;24.80
81867;DHT22;71318;-36.550;-64.300;2023-09-18T23:21:26;10.80;24.60
81867;DHT22;71318;-36.550;-64.300;2023-09-18T23:23:52;11.00;24.20
81867;DHT22;71318;-36.550;-64.300;2023-09-18T23:26:19;11.00;24.30
81867;DHT22;71318;-36.550;-64.300;2023-09-18T23:28:45;11.00;24.20
81867;DHT22;71318;-36.550;-64.300;2023-09-18T23:31:13;10.70;25.20
81867;DHT22;71318;-36.550;-64.300;2023-09-18T23:33:41;10.70;24.80
81867;DHT22;71318;-36.550;-64.300;2023-09-18T23:36:11;10.70;24.90
81867;DHT22;71318;-36.550;-64.300;2023-09-18T23:38:38;10.70;24.90
81867;DHT22;71318;-36.550;-64.300;2023-09-18T23:41:05;10.50;25.50
81867;DHT22;71318;-36.550;-64.300;2023-09-18T23:43:32;10.50;25.00
81867;DHT22;71318;-36.550;-64.300;2023-09-18T23:46:02;10.50;25.60
81867;DHT22;71318;-36.550;-64.300;2023-09-18T23:48:36;10.30;25.80
81867;DHT22;71318;-36.550;-64.300;2023-09-18T23:51:03;10.30;25.90
81867;DHT22;71318;-36.550;-64.300;2023-09-18T23:53:34;10.20;26.20
81867;DHT22;71318;-36.550;-64.300;2023-09-18T23:56:02;10.20;26.20
81867;DHT22;71318;-36.550;-64.300;2023-09-18T23:58:28;10.20;25.70
